createdAt,value
2023-12-10T00:01:39.814Z,-0.91
2023-12-10T00:04:42.834Z,-0.94
2023-12-10T00:07:45.595Z,-0.94
2023-12-10T00:10:48.344Z,-0.88
2023-12-10T00:13:54.245Z,-0.85
2023-12-10T00:16:56.937Z,-0.88
2023-12-10T00:19:59.725Z,-0.88
2023-12-10T00:23:02.548Z,-0.78
2023-12-10T00:26:05.567Z,-0.72
2023-12-10T00:29:08.344Z,-0.72
2023-12-10T00:32:11.083Z,-0.67
2023-12-10T00:35:14.005Z,-0.63
2023-12-10T00:38:18.251Z,-0.65
2023-12-10T00:41:22.976Z,-0.58
2023-12-10T00:44:25.635Z,-0.59
2023-12-10T00:47:28.424Z,-0.65
2023-12-10T00:50:31.177Z,-0.64
2023-12-10T00:53:34.125Z,-0.65
2023-12-10T00:56:36.810Z,-0.66
2023-12-10T00:59:39.747Z,-0.64
2023-12-10T01:02:42.568Z,-0.57
2023-12-10T01:05:45.305Z,-0.56
2023-12-10T01:08:48.066Z,-0.50
2023-12-10T01:11:54.354Z,-0.52
2023-12-10T01:14:57.210Z,-0.73
2023-12-10T01:18:03.302Z,-0.55
2023-12-10T01:21:11.150Z,-0.57
2023-12-10T01:24:20.638Z,-0.56
2023-12-10T01:27:23.752Z,-0.59
2023-12-10T01:30:26.599Z,-0.62
2023-12-10T01:33:29.504Z,-0.66
2023-12-10T01:36:32.450Z,-0.69
2023-12-10T01:39:35.195Z,-0.77
2023-12-10T01:42:38.012Z,-0.79
2023-12-10T01:45:41.079Z,-0.85
2023-12-10T01:48:47.336Z,-0.90
2023-12-10T01:51:51.188Z,-0.91
2023-12-10T01:54:53.954Z,-0.93
2023-12-10T01:57:56.754Z,-0.91
2023-12-10T02:01:00.385Z,-0.96
2023-12-10T02:04:07.142Z,-0.98
2023-12-10T02:07:09.940Z,-0.94
2023-12-10T02:10:12.881Z,-0.96
2023-12-10T02:13:15.785Z,-0.92
2023-12-10T02:16:18.455Z,-0.92
2023-12-10T02:19:21.226Z,-0.92
2023-12-10T02:22:24.016Z,-0.92
2023-12-10T02:25:33.411Z,-0.89
2023-12-10T02:28:36.064Z,-0.92
2023-12-10T02:31:38.827Z,-0.84
2023-12-10T02:34:42.750Z,-0.85
2023-12-10T02:37:45.600Z,-0.88
2023-12-10T02:40:49.822Z,-0.83
2023-12-10T02:43:52.676Z,-0.85
2023-12-10T02:46:55.382Z,-0.83
2023-12-10T02:49:58.196Z,-0.80
2023-12-10T02:53:00.989Z,-0.79
2023-12-10T02:56:04.017Z,-0.77
2023-12-10T02:59:06.917Z,-0.76
2023-12-10T03:02:09.645Z,-0.75
2023-12-10T03:05:12.421Z,-0.76
2023-12-10T03:08:17.895Z,-0.76
2023-12-10T03:11:20.625Z,-0.76
2023-12-10T03:14:23.348Z,-0.80
2023-12-10T03:17:26.208Z,-0.79
2023-12-10T03:20:29.076Z,-0.78
2023-12-10T03:23:31.767Z,-0.76
2023-12-10T03:26:34.539Z,-0.76
2023-12-10T03:29:37.356Z,-0.77
2023-12-10T03:32:40.171Z,-0.77
2023-12-10T03:35:45.970Z,-0.74
2023-12-10T03:38:48.861Z,-0.75
2023-12-10T03:41:51.811Z,-0.73
2023-12-10T03:44:56.748Z,-0.73
2023-12-10T03:47:59.496Z,-0.75
2023-12-10T03:51:02.413Z,-0.78
2023-12-10T03:54:05.381Z,-0.73
2023-12-10T03:57:08.299Z,-0.76
2023-12-10T04:00:11.460Z,-0.74
2023-12-10T04:03:14.641Z,-0.75
2023-12-10T04:06:18.285Z,-0.72
2023-12-10T04:09:22.354Z,-0.75
2023-12-10T04:12:25.169Z,-0.76
2023-12-10T04:15:28.573Z,-0.72
2023-12-10T04:18:31.473Z,-0.74
2023-12-10T04:21:34.567Z,-0.73
2023-12-10T04:24:37.348Z,-0.73
2023-12-10T04:27:40.573Z,-0.74
2023-12-10T04:30:43.341Z,-0.74
2023-12-10T04:33:46.312Z,-0.74
2023-12-10T04:36:49.243Z,-0.74
2023-12-10T04:39:52.134Z,-0.75
2023-12-10T04:42:58.170Z,-0.72
2023-12-10T04:46:01.005Z,-0.71
2023-12-10T04:49:03.946Z,-0.70
2023-12-10T04:52:07.444Z,-0.76
2023-12-10T04:55:10.211Z,-0.69
2023-12-10T04:58:13.004Z,-0.72
2023-12-10T05:01:16.544Z,-0.69
2023-12-10T05:04:19.573Z,-0.66
2023-12-10T05:07:22.375Z,-0.67
2023-12-10T05:10:25.126Z,-0.63
2023-12-10T05:13:27.935Z,-0.65
2023-12-10T05:16:30.760Z,-0.64
2023-12-10T05:19:33.606Z,-0.63
2023-12-10T05:22:36.455Z,-0.62
2023-12-10T05:25:39.299Z,-0.62
2023-12-10T05:28:42.100Z,-0.62
2023-12-10T05:31:44.858Z,-0.64
2023-12-10T05:34:47.896Z,-0.65
2023-12-10T05:37:54.429Z,-0.62
2023-12-10T05:40:57.389Z,-0.65
2023-12-10T05:44:00.242Z,-0.60
2023-12-10T05:47:03.983Z,-0.61
2023-12-10T05:50:07.063Z,-0.60
2023-12-10T05:53:09.773Z,-0.62
2023-12-10T05:56:12.611Z,-0.61
2023-12-10T05:59:16.335Z,-0.60
2023-12-10T06:02:19.776Z,-0.61
2023-12-10T06:05:22.617Z,-0.62
2023-12-10T06:08:25.510Z,-0.64
2023-12-10T06:11:28.326Z,-0.61
2023-12-10T06:14:31.034Z,-0.60
2023-12-10T06:17:33.948Z,-0.59
2023-12-10T06:20:37.018Z,-0.59
2023-12-10T06:23:39.799Z,-0.60
2023-12-10T06:26:42.587Z,-0.61
2023-12-10T06:29:45.510Z,-0.58
2023-12-10T06:32:48.409Z,-0.57
2023-12-10T06:35:51.546Z,-0.56
2023-12-10T06:38:54.384Z,-0.55
2023-12-10T06:41:57.312Z,-0.56
2023-12-10T06:45:00.149Z,-0.55
2023-12-10T06:48:03.249Z,-0.54
2023-12-10T06:51:06.298Z,-0.50
2023-12-10T06:54:09.291Z,-0.51
2023-12-10T06:57:12.312Z,-0.49
2023-12-10T07:00:15.899Z,-0.47
2023-12-10T07:03:18.847Z,-0.47
2023-12-10T07:06:22.766Z,-0.43
2023-12-10T07:09:25.568Z,-0.44
2023-12-10T07:12:28.713Z,-0.40
2023-12-10T07:15:31.811Z,-0.41
2023-12-10T07:18:34.884Z,-0.39
2023-12-10T07:21:37.855Z,-0.35
2023-12-10T07:24:40.810Z,-0.31
2023-12-10T07:27:43.675Z,-0.30
2023-12-10T07:30:47.981Z,-0.35
2023-12-10T07:33:51.390Z,-0.32
2023-12-10T07:36:54.317Z,-0.32
2023-12-10T07:39:58.128Z,-0.26
2023-12-10T07:43:01.025Z,-0.28
2023-12-10T07:46:05.353Z,-0.26
2023-12-10T07:49:08.410Z,-0.22
2023-12-10T07:52:11.597Z,-0.22
2023-12-10T07:55:14.481Z,-0.20
2023-12-10T07:58:17.316Z,-0.18
2023-12-10T08:01:20.402Z,-0.20
2023-12-10T08:04:23.460Z,-0.17
2023-12-10T08:07:26.361Z,-0.13
2023-12-10T08:10:31.081Z,-0.11
2023-12-10T08:13:33.985Z,-0.10
2023-12-10T08:16:38.654Z,-0.09
2023-12-10T08:19:43.387Z,-0.07
2023-12-10T08:22:49.549Z,-0.02
2023-12-10T08:25:52.769Z,0.03
2023-12-10T08:28:55.731Z,0.12
2023-12-10T08:31:58.541Z,0.21
2023-12-10T08:35:01.560Z,0.28
2023-12-10T08:38:04.807Z,0.23
2023-12-10T08:41:08.846Z,0.24
2023-12-10T08:44:12.221Z,0.18
2023-12-10T08:47:15.015Z,0.31
2023-12-10T08:50:18.103Z,0.33
2023-12-10T08:53:20.966Z,0.46
2023-12-10T08:56:23.772Z,0.48
2023-12-10T08:59:26.601Z,0.48
2023-12-10T09:02:30.696Z,0.53
2023-12-10T09:05:33.993Z,0.56
2023-12-10T09:08:36.946Z,0.68
2023-12-10T09:11:39.859Z,0.71
2023-12-10T09:14:42.728Z,0.80
2023-12-10T09:17:45.640Z,0.83
2023-12-10T09:20:48.521Z,0.80
2023-12-10T09:23:51.607Z,0.87
2023-12-10T09:26:54.605Z,0.98
2023-12-10T09:29:57.865Z,1.07
2023-12-10T09:33:00.821Z,1.14
2023-12-10T09:36:04.137Z,1.14
2023-12-10T09:39:07.128Z,1.12
2023-12-10T09:42:10.026Z,1.22
2023-12-10T09:45:12.942Z,1.22
2023-12-10T09:48:16.497Z,1.19
2023-12-10T09:51:19.516Z,1.22
2023-12-10T09:54:22.488Z,1.30
2023-12-10T09:57:28.201Z,1.40
2023-12-10T10:00:31.063Z,1.52
2023-12-10T10:03:37.939Z,1.63
2023-12-10T10:06:41.050Z,1.68
2023-12-10T10:09:45.330Z,1.61
2023-12-10T10:12:48.913Z,1.67
2023-12-10T10:15:52.131Z,1.66
2023-12-10T10:18:55.165Z,1.68
2023-12-10T10:22:01.185Z,1.74
2023-12-10T10:25:04.952Z,1.78
2023-12-10T10:28:10.524Z,1.78
2023-12-10T10:31:13.640Z,1.75
2023-12-10T10:34:16.960Z,1.76
2023-12-10T10:37:23.034Z,1.78
2023-12-10T10:40:25.996Z,1.88
2023-12-10T10:43:28.952Z,1.85
2023-12-10T10:46:31.756Z,1.76
2023-12-10T10:49:40.408Z,1.72
2023-12-10T10:52:43.830Z,1.82
2023-12-10T10:55:49.698Z,1.87
2023-12-10T10:58:52.996Z,1.95
2023-12-10T11:01:56.697Z,1.94
2023-12-10T11:04:59.425Z,2.12
2023-12-10T11:08:05.508Z,2.18
2023-12-10T11:11:08.466Z,2.26
2023-12-10T11:14:21.404Z,2.13
2023-12-10T11:17:24.115Z,2.34
2023-12-10T11:20:39.525Z,2.11
2023-12-10T11:23:42.372Z,2.16
2023-12-10T11:26:48.226Z,2.41
2023-12-10T11:29:51.066Z,2.33
2023-12-10T11:32:54.030Z,2.21
2023-12-10T11:36:32.673Z,1.93
2023-12-10T11:39:24.650Z,1.98
2023-12-10T11:42:30.723Z,2.10
2023-12-10T11:45:35.066Z,1.93
2023-12-10T11:48:39.342Z,1.78
2023-12-10T11:51:45.048Z,1.86
2023-12-10T11:54:48.150Z,1.85
2023-12-10T11:57:51.059Z,1.82
2023-12-10T12:01:01.412Z,1.77
2023-12-10T12:04:04.735Z,1.78
2023-12-10T12:07:07.767Z,1.79
2023-12-10T12:10:13.132Z,1.78
2023-12-10T12:13:18.999Z,1.76
2023-12-10T12:16:22.895Z,1.56
2023-12-10T12:19:29.038Z,1.48
2023-12-10T12:22:32.629Z,1.62
2023-12-10T12:25:39.544Z,1.70
2023-12-10T12:28:44.357Z,1.63
2023-12-10T12:32:04.538Z,1.74
2023-12-10T12:35:11.269Z,1.82
2023-12-10T12:38:14.100Z,1.92
2023-12-10T12:41:16.980Z,1.98
2023-12-10T12:44:19.870Z,1.95
2023-12-10T12:47:25.786Z,2.05
2023-12-10T12:50:28.831Z,2.05
2023-12-10T12:53:32.111Z,1.99
2023-12-10T12:56:55.203Z,1.98
2023-12-10T12:59:58.237Z,1.90
2023-12-10T13:03:01.488Z,1.75
2023-12-10T13:06:04.947Z,1.72
2023-12-10T13:09:08.307Z,1.65
2023-12-10T13:12:11.333Z,1.42
2023-12-10T13:15:14.303Z,1.45
2023-12-10T13:18:18.821Z,1.50
2023-12-10T13:21:24.385Z,1.51
2023-12-10T13:24:27.731Z,1.46
2023-12-10T13:27:31.203Z,1.56
2023-12-10T13:30:34.294Z,1.52
2023-12-10T13:33:37.360Z,1.51
2023-12-10T13:36:40.754Z,1.49
2023-12-10T13:39:43.718Z,1.33
2023-12-10T13:42:46.636Z,1.52
2023-12-10T13:45:49.805Z,1.69
2023-12-10T13:48:53.016Z,1.86
2023-12-10T13:51:55.944Z,1.81
2023-12-10T13:54:59.156Z,1.63
2023-12-10T13:58:02.083Z,1.54
2023-12-10T14:01:05.993Z,1.39
2023-12-10T14:04:08.986Z,1.26
2023-12-10T14:07:12.168Z,1.22
2023-12-10T14:10:15.076Z,1.17
2023-12-10T14:13:17.979Z,1.11
2023-12-10T14:16:21.117Z,1.05
2023-12-10T14:19:24.303Z,1.00
2023-12-10T14:22:27.218Z,1.03
2023-12-10T14:25:30.291Z,1.01
2023-12-10T14:28:33.677Z,0.95
2023-12-10T14:31:36.612Z,0.92
2023-12-10T14:34:40.322Z,0.93
2023-12-10T14:37:43.423Z,0.93
2023-12-10T14:40:46.979Z,0.88
2023-12-10T14:43:50.757Z,0.83
2023-12-10T14:46:53.519Z,0.77
2023-12-10T14:49:56.393Z,0.74
2023-12-10T14:52:59.136Z,0.73
2023-12-10T14:56:03.150Z,0.73
2023-12-10T14:59:05.995Z,0.71
2023-12-10T15:02:12.135Z,0.64
2023-12-10T15:05:15.859Z,0.54
2023-12-10T15:08:21.509Z,0.54
2023-12-10T15:11:24.301Z,0.45
2023-12-10T15:14:27.191Z,0.34
2023-12-10T15:17:30.430Z,0.29
2023-12-10T15:20:33.762Z,0.18
2023-12-10T15:23:36.588Z,0.09
2023-12-10T15:26:39.580Z,0.00
2023-12-10T15:29:42.502Z,-0.09
2023-12-10T15:32:48.252Z,-0.16
2023-12-10T15:35:51.154Z,-0.19
2023-12-10T15:38:54.041Z,-0.34
2023-12-10T15:42:00.374Z,-0.36
2023-12-10T15:45:05.099Z,-0.39
2023-12-10T15:48:07.997Z,-0.43
2023-12-10T15:51:10.904Z,-0.41
2023-12-10T15:54:13.746Z,-0.40
2023-12-10T15:57:16.633Z,-0.35
2023-12-10T16:00:20.948Z,-0.36
2023-12-10T16:03:24.964Z,-0.35
2023-12-10T16:06:28.463Z,-0.36
2023-12-10T16:09:31.478Z,-0.33
2023-12-10T16:12:34.367Z,-0.28
2023-12-10T16:15:37.163Z,-0.32
2023-12-10T16:18:40.660Z,-0.35
2023-12-10T16:21:44.578Z,-0.37
2023-12-10T16:24:47.998Z,-0.42
2023-12-10T16:27:50.942Z,-0.43
2023-12-10T16:30:56.888Z,-0.42
2023-12-10T16:34:00.462Z,-0.41
2023-12-10T16:37:03.842Z,-0.38
2023-12-10T16:40:07.284Z,-0.40
2023-12-10T16:43:10.344Z,-0.40
2023-12-10T16:46:13.373Z,-0.39
2023-12-10T16:49:16.407Z,-0.40
2023-12-10T16:52:19.333Z,-0.41
2023-12-10T16:55:22.233Z,-0.39
2023-12-10T16:58:25.132Z,-0.42
2023-12-10T17:01:28.097Z,-0.41
2023-12-10T17:04:31.123Z,-0.41
2023-12-10T17:07:34.519Z,-0.42
2023-12-10T17:10:37.561Z,-0.42
2023-12-10T17:13:40.595Z,-0.40
2023-12-10T17:16:43.812Z,-0.41
2023-12-10T17:19:47.036Z,-0.43
2023-12-10T17:22:50.691Z,-0.39
2023-12-10T17:25:56.445Z,-0.37
2023-12-10T17:28:59.282Z,-0.61
2023-12-10T17:32:02.122Z,-0.35
2023-12-10T17:35:05.951Z,-0.35
2023-12-10T17:38:09.360Z,-0.33
2023-12-10T17:41:12.636Z,-0.29
2023-12-10T17:44:18.648Z,-0.28
2023-12-10T17:47:22.342Z,-0.28
2023-12-10T17:50:25.822Z,-0.26
2023-12-10T17:53:28.841Z,-0.28
2023-12-10T17:56:31.816Z,-0.36
2023-12-10T17:59:35.112Z,-0.38
2023-12-10T18:02:37.996Z,-0.42
2023-12-10T18:05:41.321Z,-0.51
2023-12-10T18:08:44.205Z,-0.63
2023-12-10T18:11:47.269Z,-0.66
2023-12-10T18:14:50.547Z,-0.74
2023-12-10T18:17:53.456Z,-0.80
2023-12-10T18:20:56.629Z,-0.83
2023-12-10T18:23:59.506Z,-0.88
2023-12-10T18:27:02.296Z,-0.92
2023-12-10T18:30:08.498Z,-0.94
2023-12-10T18:33:11.534Z,-0.93
2023-12-10T18:36:14.915Z,-0.97
2023-12-10T18:39:18.187Z,-1.01
2023-12-10T18:42:21.209Z,-1.08
2023-12-10T18:45:25.178Z,-1.06
2023-12-10T18:48:30.789Z,-0.98
2023-12-10T18:51:34.427Z,-1.09
2023-12-10T18:54:37.438Z,-1.11
2023-12-10T18:57:40.497Z,-1.12
2023-12-10T19:00:43.804Z,-1.15
2023-12-10T19:03:48.166Z,-1.12
2023-12-10T19:06:51.217Z,-1.20
2023-12-10T19:09:54.311Z,-1.03
2023-12-10T19:12:57.380Z,-0.79
2023-12-10T19:16:00.732Z,-0.89
2023-12-10T19:19:03.749Z,-0.77
2023-12-10T19:22:07.038Z,-0.61
2023-12-10T19:25:10.302Z,-0.53
2023-12-10T19:28:13.668Z,-0.44
2023-12-10T19:31:16.917Z,-0.46
2023-12-10T19:34:19.978Z,-0.48
2023-12-10T19:37:23.188Z,-0.37
2023-12-10T19:40:26.681Z,-0.34
2023-12-10T19:43:30.596Z,-0.32
2023-12-10T19:46:34.726Z,-0.35
2023-12-10T19:49:37.493Z,-0.44
2023-12-10T19:52:40.316Z,-0.47
2023-12-10T19:55:43.126Z,-0.49
2023-12-10T19:58:45.941Z,-0.61
2023-12-10T20:01:48.804Z,-0.63
2023-12-10T20:04:52.085Z,-0.69
2023-12-10T20:07:55.015Z,-0.85
2023-12-10T20:10:58.150Z,-0.95
2023-12-10T20:14:01.301Z,-0.98
2023-12-10T20:17:04.798Z,-1.14
2023-12-10T20:20:08.319Z,-1.08
2023-12-10T20:23:11.909Z,-0.94
2023-12-10T20:26:21.525Z,-0.82
2023-12-10T20:29:31.132Z,-0.92
2023-12-10T20:32:34.336Z,-0.82
2023-12-10T20:35:37.169Z,-0.77
2023-12-10T20:38:40.360Z,-0.82
2023-12-10T20:41:43.182Z,-0.80
2023-12-10T20:44:48.027Z,-0.85
2023-12-10T20:47:52.558Z,-0.76
2023-12-10T20:50:55.616Z,-0.70
2023-12-10T20:54:01.794Z,-0.39
2023-12-10T20:57:05.952Z,-0.10
2023-12-10T21:00:09.741Z,0.03
2023-12-10T21:03:18.938Z,0.14
2023-12-10T21:06:22.007Z,0.34
2023-12-10T21:09:24.903Z,0.22
2023-12-10T21:12:27.836Z,0.20
2023-12-10T21:15:30.794Z,0.18
2023-12-10T21:18:34.055Z,0.41
2023-12-10T21:21:37.027Z,0.49
2023-12-10T21:24:39.988Z,0.67
2023-12-10T21:27:42.794Z,0.75
2023-12-10T21:30:45.679Z,0.76
2023-12-10T21:33:49.545Z,0.78
2023-12-10T21:36:52.423Z,0.80
2023-12-10T21:39:55.302Z,0.81
2023-12-10T21:42:58.167Z,0.49
2023-12-10T21:46:01.070Z,0.57
2023-12-10T21:49:04.280Z,0.50
2023-12-10T21:52:07.226Z,0.52
2023-12-10T21:55:10.698Z,0.46
2023-12-10T21:58:13.595Z,0.40
2023-12-10T22:01:20.977Z,0.33
2023-12-10T22:04:24.536Z,0.28
2023-12-10T22:07:27.719Z,0.16
2023-12-10T22:10:30.658Z,0.03
2023-12-10T22:13:33.545Z,-0.05
2023-12-10T22:16:45.293Z,-0.18
2023-12-10T22:19:48.121Z,-0.36
2023-12-10T22:22:50.778Z,-0.45
2023-12-10T22:25:53.574Z,-0.57
2023-12-10T22:28:56.584Z,-0.68
2023-12-10T22:31:59.406Z,-0.72
2023-12-10T22:35:02.110Z,-0.86
2023-12-10T22:38:05.299Z,-0.91
2023-12-10T22:41:11.172Z,-1.00
2023-12-10T22:44:13.990Z,-1.08
2023-12-10T22:47:16.836Z,-1.16
2023-12-10T22:50:20.280Z,-1.27
2023-12-10T22:53:23.389Z,-1.32
2023-12-10T22:56:28.954Z,-1.40
2023-12-10T22:59:31.606Z,-1.44
2023-12-10T23:02:34.362Z,-1.53
2023-12-10T23:05:37.634Z,-1.61
2023-12-10T23:08:40.467Z,-1.64
2023-12-10T23:11:43.857Z,-1.72
2023-12-10T23:14:46.717Z,-1.71
2023-12-10T23:17:49.476Z,-1.82
2023-12-10T23:20:53.014Z,-1.67
2023-12-10T23:23:58.729Z,-1.43
2023-12-10T23:27:01.545Z,-1.01
2023-12-10T23:30:04.932Z,-0.72
2023-12-10T23:33:07.918Z,-0.18
2023-12-10T23:36:10.838Z,-0.02
2023-12-10T23:39:13.604Z,0.24
2023-12-10T23:42:16.246Z,0.52
2023-12-10T23:45:19.039Z,0.70
2023-12-10T23:48:22.738Z,0.69
2023-12-10T23:51:25.525Z,0.71
2023-12-10T23:54:29.154Z,0.70
2023-12-10T23:57:32.234Z,0.78
